createdAt,value
2023-06-24T00:00:48.295Z,56.69
2023-06-24T00:03:15.795Z,56.80
2023-06-24T00:05:44.578Z,56.72
2023-06-24T00:08:13.865Z,56.70
2023-06-24T00:10:41.093Z,56.50
2023-06-24T00:13:08.640Z,56.68
2023-06-24T00:15:36.441Z,56.72
2023-06-24T00:18:04.023Z,56.65
2023-06-24T00:20:31.943Z,56.76
2023-06-24T00:22:59.979Z,56.75
2023-06-24T00:25:27.436Z,56.73
2023-06-24T00:27:54.836Z,56.45
2023-06-24T00:30:22.948Z,56.84
2023-06-24T00:32:50.662Z,57.00
2023-06-24T00:35:19.344Z,56.61
2023-06-24T00:37:47.069Z,56.71
2023-06-24T00:40:15.508Z,56.72
2023-06-24T00:42:46.261Z,56.77
2023-06-24T00:45:14.601Z,56.35
2023-06-24T00:47:42.567Z,56.54
2023-06-24T00:50:11.150Z,56.59
2023-06-24T00:52:38.598Z,56.69
2023-06-24T00:55:06.961Z,56.57
2023-06-24T00:57:34.682Z,56.67
2023-06-24T01:00:02.058Z,56.94
2023-06-24T01:02:29.624Z,56.72
2023-06-24T01:04:57.302Z,56.58
2023-06-24T01:07:25.390Z,56.58
2023-06-24T01:09:53.250Z,56.73
2023-06-24T01:12:20.698Z,57.01
2023-06-24T01:14:48.337Z,56.92
2023-06-24T01:17:49.321Z,56.93
2023-06-24T01:20:42.861Z,56.77
2023-06-24T01:23:44.323Z,57.04
2023-06-24T01:27:13.534Z,57.16
2023-06-24T01:30:05.078Z,57.12
2023-06-24T01:32:46.100Z,57.01
2023-06-24T01:35:22.189Z,57.22
2023-06-24T01:37:53.867Z,56.89
2023-06-24T01:40:28.554Z,56.79
2023-06-24T01:43:00.876Z,56.61
2023-06-24T01:45:33.652Z,57.04
2023-06-24T01:48:11.302Z,57.29
2023-06-24T01:50:43.232Z,57.33
2023-06-24T01:53:12.923Z,57.23
2023-06-24T01:55:45.094Z,57.23
2023-06-24T01:58:16.928Z,57.18
2023-06-24T02:00:45.160Z,57.21
2023-06-24T02:03:14.080Z,57.24
2023-06-24T02:05:43.642Z,57.21
2023-06-24T02:08:14.175Z,57.46
2023-06-24T02:10:43.625Z,57.41
2023-06-24T02:13:13.517Z,57.23
2023-06-24T02:15:42.286Z,57.35
2023-06-24T02:18:12.061Z,57.55
2023-06-24T02:20:41.857Z,57.59
2023-06-24T02:23:12.100Z,57.63
2023-06-24T02:25:41.589Z,57.63
2023-06-24T02:28:09.895Z,57.47
2023-06-24T02:30:40.108Z,57.31
2023-06-24T02:33:07.992Z,57.35
2023-06-24T02:35:35.983Z,57.30
2023-06-24T02:38:03.966Z,57.29
2023-06-24T02:40:31.812Z,57.05
2023-06-24T02:43:00.800Z,57.21
2023-06-24T02:45:29.581Z,57.41
2023-06-24T02:47:58.436Z,57.12
2023-06-24T02:50:29.076Z,57.15
2023-06-24T02:52:57.307Z,57.31
2023-06-24T02:55:25.649Z,57.37
2023-06-24T02:57:53.901Z,57.44
2023-06-24T03:00:21.665Z,57.41
2023-06-24T03:02:51.491Z,57.29
2023-06-24T03:05:19.625Z,57.06
2023-06-24T03:07:48.203Z,57.39
2023-06-24T03:10:15.626Z,57.26
2023-06-24T03:12:42.920Z,57.33
2023-06-24T03:15:10.553Z,57.45
2023-06-24T03:17:38.550Z,57.18
2023-06-24T03:20:06.974Z,57.37
2023-06-24T03:22:34.367Z,57.47
2023-06-24T03:25:01.650Z,57.29
2023-06-24T03:27:28.990Z,57.42
2023-06-24T03:29:56.344Z,57.44
2023-06-24T03:32:23.902Z,57.25
2023-06-24T03:34:51.222Z,57.46
2023-06-24T03:37:18.701Z,57.46
2023-06-24T03:39:45.875Z,57.43
2023-06-24T03:42:13.166Z,57.22
2023-06-24T03:44:40.464Z,57.49
2023-06-24T03:47:07.954Z,57.68
2023-06-24T03:49:35.265Z,57.60
2023-06-24T03:52:02.837Z,57.60
2023-06-24T03:54:30.127Z,57.68
2023-06-24T03:56:57.441Z,57.69
2023-06-24T03:59:24.981Z,57.53
2023-06-24T04:01:52.375Z,57.66
2023-06-24T04:04:19.660Z,57.87
2023-06-24T04:06:47.012Z,57.79
2023-06-24T04:09:14.388Z,57.76
2023-06-24T04:11:41.704Z,57.96
2023-06-24T04:14:09.017Z,57.74
2023-06-24T04:16:36.911Z,58.03
2023-06-24T04:19:04.676Z,57.78
2023-06-24T04:21:32.005Z,58.04
2023-06-24T04:23:59.315Z,57.90
2023-06-24T04:26:27.507Z,57.82
2023-06-24T04:28:54.848Z,57.84
2023-06-24T04:31:22.486Z,57.69
2023-06-24T04:33:49.866Z,57.83
2023-06-24T04:36:17.211Z,57.74
2023-06-24T04:38:44.467Z,58.07
2023-06-24T04:41:11.882Z,57.94
2023-06-24T04:43:39.118Z,57.92
2023-06-24T04:46:06.352Z,57.99
2023-06-24T04:48:33.700Z,57.94
2023-06-24T04:51:01.215Z,57.65
2023-06-24T04:53:29.246Z,57.60
2023-06-24T04:55:56.473Z,57.85
2023-06-24T04:58:24.108Z,57.86
2023-06-24T05:00:53.512Z,58.02
2023-06-24T05:03:20.930Z,58.00
2023-06-24T05:05:49.510Z,58.47
2023-06-24T05:08:17.139Z,58.34
2023-06-24T05:10:44.443Z,58.16
2023-06-24T05:13:11.833Z,58.38
2023-06-24T05:15:39.516Z,58.12
2023-06-24T05:18:06.909Z,58.21
2023-06-24T05:20:34.209Z,58.18
2023-06-24T05:23:01.567Z,58.27
2023-06-24T05:25:28.895Z,58.21
2023-06-24T05:27:56.281Z,58.46
2023-06-24T05:30:24.308Z,58.49
2023-06-24T05:32:51.991Z,58.57
2023-06-24T05:35:19.375Z,58.80
2023-06-24T05:37:46.818Z,59.06
2023-06-24T05:40:14.163Z,59.22
2023-06-24T05:42:41.487Z,59.37
2023-06-24T05:45:09.236Z,59.36
2023-06-24T05:47:36.826Z,59.36
2023-06-24T05:50:04.561Z,59.47
2023-06-24T05:52:31.969Z,59.46
2023-06-24T05:54:59.429Z,59.44
2023-06-24T05:57:26.743Z,59.51
2023-06-24T05:59:54.007Z,59.26
2023-06-24T06:02:21.356Z,59.13
2023-06-24T06:04:49.178Z,59.21
2023-06-24T06:07:16.489Z,59.21
2023-06-24T06:09:44.357Z,59.21
2023-06-24T06:12:12.055Z,59.33
2023-06-24T06:14:39.469Z,59.65
2023-06-24T06:17:07.090Z,59.37
2023-06-24T06:19:34.434Z,59.31
2023-06-24T06:22:01.773Z,58.53
2023-06-24T06:24:29.084Z,57.63
2023-06-24T06:26:58.824Z,57.35
2023-06-24T06:29:26.375Z,56.64
2023-06-24T06:31:53.943Z,55.20
2023-06-24T06:34:21.624Z,53.98
2023-06-24T06:36:50.295Z,53.64
2023-06-24T06:39:17.617Z,52.97
2023-06-24T06:41:45.133Z,52.05
2023-06-24T06:44:12.622Z,51.43
2023-06-24T06:46:40.965Z,52.29
2023-06-24T06:49:08.277Z,53.12
2023-06-24T06:51:36.084Z,52.77
2023-06-24T06:54:03.543Z,53.11
2023-06-24T06:56:31.113Z,53.81
2023-06-24T06:58:58.465Z,53.14
2023-06-24T07:01:25.819Z,51.16
2023-06-24T07:03:53.229Z,50.92
2023-06-24T07:06:21.076Z,52.06
2023-06-24T07:08:48.586Z,52.93
2023-06-24T07:11:16.181Z,51.76
2023-06-24T07:13:43.415Z,50.88
2023-06-24T07:16:10.942Z,50.54
2023-06-24T07:18:38.395Z,48.96
2023-06-24T07:21:05.908Z,48.72
2023-06-24T07:23:33.280Z,48.13
2023-06-24T07:26:03.699Z,47.25
2023-06-24T07:28:31.450Z,47.11
2023-06-24T07:30:58.811Z,46.72
2023-06-24T07:33:26.452Z,45.95
2023-06-24T07:35:53.737Z,45.24
2023-06-24T07:38:21.053Z,45.05
2023-06-24T07:40:48.387Z,45.28
2023-06-24T07:43:16.006Z,44.72
2023-06-24T07:45:44.380Z,44.00
2023-06-24T07:48:11.839Z,43.78
2023-06-24T07:50:42.210Z,43.34
2023-06-24T07:53:09.479Z,43.60
2023-06-24T07:55:37.002Z,42.98
2023-06-24T07:58:04.537Z,42.55
2023-06-24T08:00:32.393Z,43.19
2023-06-24T08:03:00.569Z,42.86
2023-06-24T08:05:27.953Z,41.09
2023-06-24T08:07:55.565Z,42.30
2023-06-24T08:10:23.002Z,41.71
2023-06-24T08:12:50.308Z,40.97
2023-06-24T08:15:19.202Z,41.94
2023-06-24T08:17:55.746Z,41.85
2023-06-24T08:20:24.431Z,41.18
2023-06-24T08:22:52.110Z,40.46
2023-06-24T08:25:19.850Z,40.50
2023-06-24T08:27:47.796Z,40.45
2023-06-24T08:30:15.926Z,40.43
2023-06-24T08:32:43.490Z,39.67
2023-06-24T08:35:11.432Z,39.55
2023-06-24T08:37:39.276Z,39.56
2023-06-24T08:40:07.732Z,38.95
2023-06-24T08:42:35.162Z,38.87
2023-06-24T08:45:02.472Z,38.58
2023-06-24T08:47:31.931Z,38.04
2023-06-24T08:50:19.428Z,38.90
2023-06-24T08:52:56.661Z,39.69
2023-06-24T08:55:33.775Z,38.93
2023-06-24T08:58:01.394Z,38.88
2023-06-24T09:00:29.033Z,38.49
2023-06-24T09:02:57.337Z,37.16
2023-06-24T09:05:24.746Z,37.18
2023-06-24T09:07:52.051Z,38.02
2023-06-24T09:10:37.637Z,38.02
2023-06-24T09:13:08.314Z,37.83
2023-06-24T09:15:39.752Z,37.68
2023-06-24T09:18:07.639Z,37.47
2023-06-24T09:20:44.180Z,36.69
2023-06-24T09:23:11.765Z,37.27
2023-06-24T09:25:39.287Z,37.15
2023-06-24T09:28:06.693Z,37.02
2023-06-24T09:30:33.990Z,36.83
2023-06-24T09:33:01.321Z,36.82
2023-06-24T09:35:28.792Z,36.37
2023-06-24T09:37:58.667Z,36.04
2023-06-24T09:40:26.258Z,35.87
2023-06-24T09:42:56.958Z,35.27
2023-06-24T09:45:31.829Z,34.33
2023-06-24T09:47:59.575Z,36.16
2023-06-24T09:50:26.923Z,35.83
2023-06-24T09:52:56.789Z,36.27
2023-06-24T09:55:25.876Z,36.01
2023-06-24T09:57:55.648Z,35.17
2023-06-24T10:00:24.726Z,35.41
2023-06-24T10:02:58.541Z,35.36
2023-06-24T10:05:28.277Z,35.65
2023-06-24T10:07:55.582Z,35.49
2023-06-24T10:10:23.042Z,35.46
2023-06-24T10:12:50.606Z,34.72
2023-06-24T10:15:18.195Z,35.30
2023-06-24T10:17:46.894Z,35.53
2023-06-24T10:20:24.367Z,33.59
2023-06-24T10:22:52.898Z,33.25
2023-06-24T10:25:20.535Z,33.57
2023-06-24T10:27:55.199Z,34.43
2023-06-24T10:30:23.299Z,34.55
2023-06-24T10:32:54.198Z,33.47
2023-06-24T10:35:29.882Z,33.14
2023-06-24T10:38:01.837Z,32.65
2023-06-24T10:40:41.896Z,33.21
2023-06-24T10:43:26.610Z,33.60
2023-06-24T10:45:56.679Z,32.43
2023-06-24T10:48:24.000Z,33.68
2023-06-24T10:50:52.121Z,34.92
2023-06-24T10:53:20.031Z,33.12
2023-06-24T10:55:47.636Z,32.92
2023-06-24T10:58:16.253Z,34.51
2023-06-24T11:00:44.676Z,33.69
2023-06-24T11:03:18.220Z,33.15
2023-06-24T11:05:47.249Z,33.76
2023-06-24T11:08:14.891Z,33.80
2023-06-24T11:10:46.876Z,34.04
2023-06-24T11:13:14.823Z,34.17
2023-06-24T11:15:42.887Z,34.99
2023-06-24T11:18:11.805Z,33.17
2023-06-24T11:20:40.613Z,34.47
2023-06-24T11:23:10.018Z,33.48
2023-06-24T11:25:45.302Z,33.46
2023-06-24T11:28:22.124Z,33.12
2023-06-24T11:30:50.924Z,32.81
2023-06-24T11:33:30.449Z,31.73
2023-06-24T11:35:57.972Z,32.72
2023-06-24T11:38:25.222Z,32.11
2023-06-24T11:40:52.467Z,30.49
2023-06-24T11:43:22.250Z,31.97
2023-06-24T11:45:50.197Z,31.87
2023-06-24T11:48:17.476Z,31.38
2023-06-24T11:50:44.765Z,30.90
2023-06-24T11:53:12.715Z,30.37
2023-06-24T11:55:39.972Z,31.15
2023-06-24T11:58:07.258Z,31.09
2023-06-24T12:00:40.667Z,30.60
2023-06-24T12:03:11.938Z,30.70
2023-06-24T12:05:40.821Z,30.29
2023-06-24T12:08:11.288Z,30.75
2023-06-24T12:10:40.580Z,30.41
2023-06-24T12:13:08.707Z,29.95
2023-06-24T12:15:37.321Z,30.88
2023-06-24T12:18:04.713Z,30.24
2023-06-24T12:20:35.218Z,30.66
2023-06-24T12:23:04.243Z,30.92
2023-06-24T12:25:31.770Z,31.20
2023-06-24T12:27:59.251Z,29.58
2023-06-24T12:30:26.884Z,28.94
2023-06-24T12:32:54.426Z,28.56
2023-06-24T12:35:23.412Z,29.22
2023-06-24T12:37:50.781Z,28.45
2023-06-24T12:40:17.987Z,29.91
2023-06-24T12:42:45.560Z,29.04
2023-06-24T12:45:12.978Z,28.92
2023-06-24T12:47:40.236Z,28.86
2023-06-24T12:50:09.635Z,29.57
2023-06-24T12:52:37.770Z,29.38
2023-06-24T12:55:06.281Z,29.05
2023-06-24T12:57:33.580Z,27.23
2023-06-24T13:00:00.894Z,27.41
2023-06-24T13:02:28.232Z,27.64
2023-06-24T13:04:55.650Z,27.74
2023-06-24T13:07:22.947Z,30.16
2023-06-24T13:09:50.470Z,28.72
2023-06-24T13:12:17.722Z,27.90
2023-06-24T13:14:45.324Z,28.35
2023-06-24T13:17:13.119Z,28.50
2023-06-24T13:19:40.790Z,27.91
2023-06-24T13:22:08.234Z,27.35
2023-06-24T13:24:35.894Z,28.67
2023-06-24T13:27:03.269Z,28.26
2023-06-24T13:29:30.799Z,28.09
2023-06-24T13:31:58.187Z,28.69
2023-06-24T13:34:25.471Z,28.13
2023-06-24T13:36:52.780Z,27.37
2023-06-24T13:39:20.231Z,27.12
2023-06-24T13:41:47.574Z,25.75
2023-06-24T13:44:15.399Z,26.85
2023-06-24T13:46:43.054Z,26.64
2023-06-24T13:49:11.476Z,26.45
2023-06-24T13:51:39.255Z,26.72
2023-06-24T13:54:06.613Z,26.52
2023-06-24T13:56:34.045Z,26.33
2023-06-24T13:59:01.554Z,24.80
2023-06-24T14:01:28.946Z,26.08
2023-06-24T14:03:57.181Z,25.88
2023-06-24T14:06:25.694Z,25.48
2023-06-24T14:08:53.245Z,25.59
2023-06-24T14:11:21.100Z,25.86
2023-06-24T14:13:48.473Z,25.86
2023-06-24T14:16:17.903Z,26.28
2023-06-24T14:18:45.446Z,26.80
2023-06-24T14:21:12.670Z,27.34
2023-06-24T14:23:40.000Z,26.91
2023-06-24T14:26:07.452Z,27.13
2023-06-24T14:28:34.958Z,26.38
2023-06-24T14:31:02.861Z,26.74
2023-06-24T14:33:30.318Z,26.24
2023-06-24T14:35:57.901Z,27.52
2023-06-24T14:38:26.330Z,27.61
2023-06-24T14:40:55.689Z,27.35
2023-06-24T14:43:23.006Z,28.17
2023-06-24T14:45:50.779Z,27.01
2023-06-24T14:48:18.064Z,27.38
2023-06-24T14:50:45.359Z,27.52
2023-06-24T14:53:12.667Z,27.57
2023-06-24T14:55:40.020Z,27.13
2023-06-24T14:58:07.314Z,27.00
2023-06-24T15:00:35.123Z,27.52
2023-06-24T15:03:02.733Z,27.34
2023-06-24T15:05:30.124Z,26.93
2023-06-24T15:07:57.469Z,25.29
2023-06-24T15:10:24.837Z,25.98
2023-06-24T15:12:52.129Z,26.80
2023-06-24T15:15:19.515Z,26.82
2023-06-24T15:17:46.786Z,25.36
2023-06-24T15:20:14.518Z,26.17
2023-06-24T15:22:42.569Z,25.17
2023-06-24T15:25:10.242Z,25.03
2023-06-24T15:27:37.816Z,26.28
2023-06-24T15:30:06.506Z,25.59
2023-06-24T15:32:33.985Z,26.39
2023-06-24T15:35:05.523Z,26.26
2023-06-24T15:37:32.939Z,26.17
2023-06-24T15:40:00.452Z,27.29
2023-06-24T15:42:27.720Z,26.91
2023-06-24T15:44:55.044Z,27.04
2023-06-24T15:47:22.720Z,27.70
2023-06-24T15:49:50.067Z,27.91
2023-06-24T15:52:17.586Z,28.57
2023-06-24T15:54:44.809Z,28.73
2023-06-24T15:57:12.333Z,29.76
2023-06-24T15:59:39.767Z,29.68
2023-06-24T16:02:07.692Z,29.91
2023-06-24T16:04:35.236Z,30.01
2023-06-24T16:07:02.626Z,30.40
2023-06-24T16:09:30.208Z,29.93
2023-06-24T16:11:57.842Z,29.76
2023-06-24T16:14:25.259Z,30.14
2023-06-24T16:16:52.701Z,30.49
2023-06-24T16:19:20.548Z,30.95
2023-06-24T16:21:49.170Z,30.84
2023-06-24T16:24:16.598Z,31.20
2023-06-24T16:26:52.506Z,31.38
2023-06-24T16:29:20.573Z,31.75
2023-06-24T16:31:48.156Z,31.57
2023-06-24T16:34:23.694Z,32.10
2023-06-24T16:36:52.632Z,32.00
2023-06-24T16:39:20.834Z,32.14
2023-06-24T16:41:48.161Z,32.29
2023-06-24T16:44:15.670Z,32.46
2023-06-24T16:46:43.311Z,32.00
2023-06-24T16:49:10.638Z,31.88
2023-06-24T16:51:38.361Z,31.92
2023-06-24T16:54:05.716Z,32.26
2023-06-24T16:56:33.227Z,32.47
2023-06-24T16:59:01.104Z,32.46
2023-06-24T17:01:28.430Z,32.38
2023-06-24T17:03:55.666Z,32.61
2023-06-24T17:06:23.210Z,32.86
2023-06-24T17:08:50.487Z,32.58
2023-06-24T17:11:17.942Z,32.71
2023-06-24T17:13:45.541Z,32.68
2023-06-24T17:16:12.845Z,32.90
2023-06-24T17:18:40.107Z,32.86
2023-06-24T17:21:07.701Z,32.78
2023-06-24T17:23:35.005Z,33.36
2023-06-24T17:26:02.446Z,33.25
2023-06-24T17:28:29.985Z,33.05
2023-06-24T17:30:57.340Z,33.20
2023-06-24T17:33:24.717Z,33.39
2023-06-24T17:35:52.077Z,33.32
2023-06-24T17:38:19.652Z,33.90
2023-06-24T17:40:46.997Z,33.87
2023-06-24T17:43:14.486Z,34.15
2023-06-24T17:45:41.800Z,34.23
2023-06-24T17:48:09.539Z,34.16
2023-06-24T17:50:37.086Z,34.16
2023-06-24T17:53:06.098Z,33.87
2023-06-24T17:55:33.348Z,34.13
2023-06-24T17:58:00.896Z,33.95
2023-06-24T18:00:28.374Z,33.96
2023-06-24T18:02:55.652Z,34.18
2023-06-24T18:05:22.991Z,33.26
2023-06-24T18:07:50.504Z,33.69
2023-06-24T18:10:18.080Z,34.12
2023-06-24T18:12:45.424Z,34.49
2023-06-24T18:15:15.025Z,34.35
2023-06-24T18:17:43.531Z,34.56
2023-06-24T18:20:11.736Z,34.14
2023-06-24T18:22:39.134Z,34.88
2023-06-24T18:25:07.301Z,34.26
2023-06-24T18:27:34.888Z,34.46
2023-06-24T18:30:02.554Z,34.80
2023-06-24T18:32:29.884Z,35.34
2023-06-24T18:34:57.319Z,35.48
2023-06-24T18:37:25.125Z,35.77
2023-06-24T18:39:52.624Z,35.61
2023-06-24T18:42:19.934Z,36.18
2023-06-24T18:44:47.300Z,35.48
2023-06-24T18:47:14.661Z,36.11
2023-06-24T18:49:42.262Z,36.51
2023-06-24T18:52:10.141Z,36.50
2023-06-24T18:54:37.445Z,36.61
2023-06-24T18:57:05.275Z,36.71
2023-06-24T18:59:32.910Z,36.93
2023-06-24T19:02:00.175Z,37.21
2023-06-24T19:04:27.385Z,36.99
2023-06-24T19:06:55.001Z,37.42
2023-06-24T19:09:22.509Z,37.52
2023-06-24T19:11:49.862Z,37.56
2023-06-24T19:14:17.572Z,37.49
2023-06-24T19:16:45.018Z,37.59
2023-06-24T19:19:12.439Z,38.18
2023-06-24T19:21:39.798Z,38.44
2023-06-24T19:24:07.447Z,38.81
2023-06-24T19:26:35.827Z,38.59
2023-06-24T19:29:03.681Z,38.24
2023-06-24T19:31:31.218Z,38.35
2023-06-24T19:33:58.533Z,38.47
2023-06-24T19:36:26.294Z,38.84
2023-06-24T19:38:53.964Z,38.93
2023-06-24T19:41:21.391Z,39.29
2023-06-24T19:43:49.880Z,39.26
2023-06-24T19:46:28.107Z,39.66
2023-06-24T19:49:03.805Z,39.57
2023-06-24T19:51:31.525Z,39.19
2023-06-24T19:53:59.251Z,39.21
2023-06-24T19:56:26.463Z,39.79
2023-06-24T19:58:54.336Z,40.05
2023-06-24T20:01:21.780Z,40.26
2023-06-24T20:03:49.068Z,40.43
2023-06-24T20:06:16.545Z,40.48
2023-06-24T20:08:44.097Z,40.45
2023-06-24T20:11:11.401Z,40.63
2023-06-24T20:13:39.181Z,40.51
2023-06-24T20:16:06.578Z,40.23
2023-06-24T20:18:33.878Z,40.52
2023-06-24T20:21:01.161Z,40.46
2023-06-24T20:23:28.655Z,40.47
2023-06-24T20:25:55.874Z,40.74
2023-06-24T20:28:23.573Z,41.04
2023-06-24T20:30:51.134Z,41.10
2023-06-24T20:33:18.341Z,41.34
2023-06-24T20:35:45.583Z,41.66
2023-06-24T20:38:12.901Z,41.78
2023-06-24T20:40:40.242Z,42.41
2023-06-24T20:43:07.497Z,42.65
2023-06-24T20:45:35.297Z,42.57
2023-06-24T20:48:02.584Z,42.61
2023-06-24T20:50:29.823Z,43.07
2023-06-24T20:52:57.461Z,43.15
2023-06-24T20:55:24.777Z,43.84
2023-06-24T20:57:52.062Z,43.91
2023-06-24T21:00:19.608Z,43.80
2023-06-24T21:02:47.147Z,44.14
2023-06-24T21:05:14.549Z,44.32
2023-06-24T21:07:41.894Z,44.15
2023-06-24T21:10:09.786Z,44.24
2023-06-24T21:12:49.572Z,44.65
2023-06-24T21:15:20.940Z,45.16
2023-06-24T21:17:48.720Z,45.44
2023-06-24T21:20:16.161Z,45.28
2023-06-24T21:22:43.447Z,45.13
2023-06-24T21:25:11.040Z,45.45
2023-06-24T21:27:38.282Z,45.51
2023-06-24T21:30:07.894Z,45.90
2023-06-24T21:32:35.227Z,45.40
2023-06-24T21:35:03.317Z,45.67
2023-06-24T21:37:30.628Z,45.79
2023-06-24T21:39:57.859Z,45.38
2023-06-24T21:42:25.349Z,45.88
2023-06-24T21:44:52.594Z,46.28
2023-06-24T21:47:19.867Z,46.55
2023-06-24T21:49:47.294Z,46.17
2023-06-24T21:52:14.571Z,45.48
2023-06-24T21:54:42.164Z,46.30
2023-06-24T21:57:09.678Z,46.36
2023-06-24T21:59:36.997Z,46.33
2023-06-24T22:02:05.677Z,46.61
2023-06-24T22:04:32.931Z,46.95
2023-06-24T22:07:00.559Z,46.99
2023-06-24T22:09:27.816Z,47.31
2023-06-24T22:11:55.031Z,47.14
2023-06-24T22:14:22.403Z,47.02
2023-06-24T22:16:49.861Z,47.32
2023-06-24T22:19:21.637Z,47.20
2023-06-24T22:21:48.842Z,47.06
2023-06-24T22:24:16.102Z,47.06
2023-06-24T22:26:43.327Z,47.16
2023-06-24T22:29:10.758Z,47.34
2023-06-24T22:31:38.069Z,47.40
2023-06-24T22:34:05.420Z,47.66
2023-06-24T22:36:32.652Z,47.72
2023-06-24T22:38:59.919Z,47.82
2023-06-24T22:41:27.352Z,48.01
2023-06-24T22:43:54.787Z,48.11
2023-06-24T22:46:22.167Z,47.91
2023-06-24T22:48:49.553Z,47.94
2023-06-24T22:51:16.948Z,47.67
2023-06-24T22:53:44.245Z,47.74
2023-06-24T22:56:11.524Z,48.18
2023-06-24T22:58:38.873Z,48.35
2023-06-24T23:01:06.590Z,48.91
2023-06-24T23:03:34.686Z,48.40
2023-06-24T23:06:03.061Z,48.49
2023-06-24T23:08:30.688Z,48.33
2023-06-24T23:10:58.476Z,48.64
2023-06-24T23:13:26.315Z,48.90
2023-06-24T23:15:53.996Z,48.69
2023-06-24T23:18:21.672Z,48.71
2023-06-24T23:20:49.432Z,48.83
2023-06-24T23:23:16.970Z,49.09
2023-06-24T23:25:45.001Z,49.08
2023-06-24T23:28:12.652Z,48.86
2023-06-24T23:30:40.519Z,48.68
2023-06-24T23:33:08.589Z,48.94
2023-06-24T23:35:36.381Z,49.22
2023-06-24T23:38:03.978Z,49.63
2023-06-24T23:40:31.608Z,49.72
2023-06-24T23:42:59.661Z,49.38
2023-06-24T23:45:27.837Z,49.47
2023-06-24T23:47:55.207Z,49.51
2023-06-24T23:50:22.540Z,49.48
2023-06-24T23:52:50.242Z,49.59
2023-06-24T23:55:17.611Z,49.35
2023-06-24T23:57:45.043Z,49.50
